Parrott, Georgia
Current Conditions -  °F | °C
As of 11:55 AM on Wednesday 22 Oct 2014 (Local Time) from KACJ Reporting Station
Clear Clear  
Wind Chill: 61°   Ceiling: Unl
Heat Index: 61°   Visibility: 10mi
Dew Point: 43°   Wind: 8mph
Humidity: 52%   Direction: 60°ENE
Pressure: 30.11"   Gusts: NA
Location:  31.89°N, 84.51°W
Report Text: KACJ 221555Z AUTO 06007KT 10SM CLR 16/06 A3011 RMK AO2
Loading
Personal Weather Stations






























Interactive Weather Map
Tropical Storm Tracking
New forecast layout! Learn more

10-Day Weather Forecast

Advertisements
Track Severe Weather on mobile